Time;durP1;ratioP1;P1;durP2;ratioP2;P2;SDS_P1;SDS_P2;PMS_P1;PMS_P2;Temp;Humidity;BMP_temperature;BMP_pressure;BME280_temperature;BME280_humidity;BME280_pressure;Samples;Min_cycle;Max_cycle;Signal;HPM_P1;HPM_P2
2021/08/12 00:02:08;;;;;;;49.90;21.90;;;16.60;99.90;;;;;;5113894;28;20441;-84
2021/08/12 00:04:35;;;;;;;40.87;21.43;;;16.60;99.90;;;;;;5113333;28;20477;-85
2021/08/12 00:07:01;;;;;;;44.13;23.57;;;16.60;99.90;;;;;;5113958;28;20465;-84
2021/08/12 00:09:28;;;;;;;38.70;18.40;;;16.60;99.90;;;;;;5114185;28;20949;-84
2021/08/12 00:11:54;;;;;;;45.40;23.70;;;16.60;99.90;;;;;;5113754;28;20533;-84
2021/08/12 00:14:21;;;;;;;42.13;20.10;;;16.60;99.90;;;;;;5115893;28;20778;-84
2021/08/12 00:16:49;;;;;;;39.23;21.60;;;16.60;99.90;;;;;;5113448;28;20804;-85
2021/08/12 00:19:15;;;;;;;41.53;20.03;;;16.60;99.90;;;;;;5113821;28;20470;-85
2021/08/12 00:21:43;;;;;;;40.90;19.20;;;16.60;99.90;;;;;;5113859;28;21152;-86
2021/08/12 00:24:09;;;;;;;41.57;19.30;;;16.60;99.90;;;;;;5115271;28;20494;-84
2021/08/12 00:26:36;;;;;;;42.47;22.83;;;16.50;99.90;;;;;;5116220;28;21004;-83
2021/08/12 00:29:04;;;;;;;39.77;20.13;;;16.50;99.90;;;;;;5117633;28;20471;-82
2021/08/12 00:31:31;;;;;;;42.60;22.90;;;16.50;99.90;;;;;;5117730;28;20441;-82
2021/08/12 00:33:59;;;;;;;41.07;18.67;;;16.50;99.90;;;;;;5116688;28;20486;-81
2021/08/12 00:36:26;;;;;;;41.17;21.67;;;16.50;99.90;;;;;;5117093;28;20520;-81
2021/08/12 00:38:53;;;;;;;45.33;24.17;;;16.40;99.90;;;;;;5116836;28;20473;-82
2021/08/12 00:41:19;;;;;;;50.53;22.83;;;16.40;99.90;;;;;;5117076;28;20495;-82
2021/08/12 00:43:46;;;;;;;41.30;24.33;;;16.50;99.90;;;;;;5116856;28;20924;-82
2021/08/12 00:46:12;;;;;;;40.20;17.37;;;16.40;99.90;;;;;;5116832;28;20446;-82
2021/08/12 00:48:39;;;;;;;46.07;22.30;;;16.40;99.90;;;;;;5116995;28;20552;-83
2021/08/12 00:51:07;;;;;;;42.90;21.03;;;16.40;99.90;;;;;;5117101;28;20465;-87
2021/08/12 00:53:34;;;;;;;44.30;20.63;;;16.40;99.90;;;;;;5117018;28;20841;-88
2021/08/12 00:56:00;;;;;;;40.77;19.60;;;16.30;99.90;;;;;;5116448;28;20924;-87
2021/08/12 00:58:27;;;;;;;43.70;20.80;;;16.30;99.90;;;;;;5116847;28;20533;-85
2021/08/12 01:00:53;;;;;;;43.07;18.63;;;16.30;99.90;;;;;;5117047;28;20532;-85
2021/08/12 01:03:20;;;;;;;39.47;18.83;;;16.30;99.90;;;;;;5116523;28;20479;-85
2021/08/12 01:05:48;;;;;;;42.80;17.93;;;16.30;99.90;;;;;;5116594;28;20480;-85
2021/08/12 01:08:33;;;;;;;40.33;20.03;;;16.30;99.90;;;;;;5116139;28;20481;-85
2021/08/12 01:11:09;;;;;;;40.10;26.00;;;16.30;99.90;;;;;;5102402;28;20812;-85
2021/08/12 01:13:47;;;;;;;39.67;19.43;;;16.30;99.90;;;;;;5116740;28;20544;-84
2021/08/12 01:16:15;;;;;;;41.90;25.37;;;16.30;99.90;;;;;;5118115;27;20453;-84
2021/08/12 01:18:46;;;;;;;47.07;20.87;;;16.20;99.90;;;;;;5099924;28;20524;-84
2021/08/12 01:21:39;;;;;;;42.80;20.43;;;16.20;99.90;;;;;;5116071;28;20538;-83
2021/08/12 01:24:10;;;;;;;39.30;20.30;;;16.20;99.90;;;;;;5116655;28;21006;-83
2021/08/12 01:26:40;;;;;;;41.37;22.43;;;16.10;99.90;;;;;;5116503;28;20524;-84
2021/08/12 01:29:10;;;;;;;43.37;20.33;;;16.10;99.90;;;;;;5116571;28;20566;-84
2021/08/12 01:31:52;;;;;;;41.73;22.97;;;16.10;99.90;;;;;;5116570;28;20482;-84
2021/08/12 01:34:26;;;;;;;40.87;19.53;;;16.10;99.90;;;;;;5116217;28;20438;-82
2021/08/12 01:36:55;;;;;;;37.07;17.60;;;16.00;99.90;;;;;;5116273;28;20558;-83
2021/08/12 01:39:23;;;;;;;42.50;18.20;;;16.00;99.90;;;;;;5116169;28;20532;-84
2021/08/12 01:41:50;;;;;;;41.67;19.07;;;16.00;99.90;;;;;;5115558;28;20992;-86
2021/08/12 01:44:18;;;;;;;42.30;20.13;;;16.00;99.90;;;;;;5115563;27;20434;-86
2021/08/12 01:46:47;;;;;;;39.47;19.53;;;16.00;99.90;;;;;;5115165;28;20524;-85
2021/08/12 01:49:14;;;;;;;41.23;18.70;;;15.90;99.90;;;;;;5116380;28;20449;-83
2021/08/12 01:51:42;;;;;;;46.47;20.47;;;15.90;99.90;;;;;;5115374;28;20537;-83
2021/08/12 01:54:10;;;;;;;37.87;18.90;;;15.90;99.90;;;;;;5115572;27;20838;-83
2021/08/12 01:56:38;;;;;;;44.20;21.03;;;15.90;99.90;;;;;;5115507;28;20480;-83
2021/08/12 01:59:06;;;;;;;41.17;16.70;;;15.80;99.90;;;;;;5115278;28;20529;-83
2021/08/12 02:01:33;;;;;;;39.50;18.03;;;15.80;99.90;;;;;;5116051;28;20470;-83
2021/08/12 02:04:00;;;;;;;41.00;20.23;;;15.80;99.90;;;;;;5115924;28;20473;-82
2021/08/12 02:06:34;;;;;;;45.43;21.33;;;15.80;99.90;;;;;;5115658;28;20449;-82
2021/08/12 02:09:01;;;;;;;41.37;17.67;;;15.80;99.90;;;;;;5115312;28;20568;-85
2021/08/12 02:11:28;;;;;;;42.67;20.53;;;15.80;99.90;;;;;;5115677;28;20476;-84
2021/08/12 02:13:55;;;;;;;39.43;21.07;;;15.80;99.90;;;;;;5115581;28;20538;-84
2021/08/12 02:16:21;;;;;;;43.53;21.97;;;15.70;99.90;;;;;;5117538;27;20548;-85
2021/08/12 02:18:48;;;;;;;41.53;19.90;;;15.70;99.90;;;;;;5115487;28;20540;-85
2021/08/12 02:21:32;;;;;;;39.00;18.87;;;15.70;99.90;;;;;;5115558;28;20528;-83
2021/08/12 02:24:03;;;;;;;44.13;20.90;;;15.70;99.90;;;;;;5115471;28;20438;-83
2021/08/12 02:26:35;;;;;;;40.10;19.63;;;15.70;99.90;;;;;;5115450;28;20473;-84
2021/08/12 02:29:02;;;;;;;36.00;17.23;;;15.60;99.90;;;;;;5115055;28;20682;-85
2021/08/12 02:31:31;;;;;;;37.73;16.73;;;15.60;99.90;;;;;;5112780;28;20489;-85
2021/08/12 02:34:00;;;;;;;43.07;17.90;;;15.60;99.90;;;;;;5114735;28;20494;-86
2021/08/12 02:36:27;;;;;;;41.27;20.30;;;15.60;99.90;;;;;;5114629;28;20480;-86
2021/08/12 02:38:54;;;;;;;39.77;18.90;;;15.50;99.90;;;;;;5114670;28;20528;-85
2021/08/12 02:41:22;;;;;;;46.70;20.13;;;15.50;99.90;;;;;;5114980;28;20466;-84
2021/08/12 02:43:51;;;;;;;40.03;19.93;;;15.50;99.90;;;;;;5114621;28;20529;-84
2021/08/12 02:46:20;;;;;;;41.73;20.87;;;15.40;99.90;;;;;;5113615;28;20844;-84
2021/08/12 02:48:48;;;;;;;40.53;19.70;;;15.40;99.90;;;;;;5114463;27;20509;-84
2021/08/12 02:51:15;;;;;;;40.17;19.30;;;15.40;99.90;;;;;;5114195;28;20882;-85
2021/08/12 02:53:42;;;;;;;41.80;20.90;;;15.40;99.90;;;;;;5114672;28;20535;-83
2021/08/12 02:56:11;;;;;;;38.27;21.00;;;15.40;99.90;;;;;;5114492;28;20445;-84
2021/08/12 02:58:41;;;;;;;41.57;22.10;;;15.30;99.90;;;;;;5114687;28;20458;-83
2021/08/12 03:01:10;;;;;;;40.57;20.03;;;15.40;99.90;;;;;;5114610;28;20481;-83
2021/08/12 03:03:39;;;;;;;37.23;17.70;;;15.30;99.90;;;;;;5114485;28;20560;-83
2021/08/12 03:06:08;;;;;;;50.87;21.77;;;15.30;99.90;;;;;;5114227;28;20441;-83
2021/08/12 03:08:35;;;;;;;38.00;17.83;;;15.30;99.90;;;;;;5114004;28;20573;-84
2021/08/12 03:11:02;;;;;;;43.10;18.57;;;15.30;99.90;;;;;;5114343;28;20470;-84
2021/08/12 03:13:29;;;;;;;37.87;20.33;;;15.30;99.90;;;;;;5114338;28;20809;-83
2021/08/12 03:15:56;;;;;;;39.23;17.53;;;15.30;99.90;;;;;;5116312;27;20870;-83
2021/08/12 03:18:24;;;;;;;46.80;21.50;;;15.30;99.90;;;;;;5114182;28;20493;-83
2021/08/12 03:20:50;;;;;;;43.23;18.80;;;15.30;99.90;;;;;;5114718;28;20541;-83
2021/08/12 03:23:18;;;;;;;40.87;21.27;;;15.30;99.90;;;;;;5113733;28;20475;-84
2021/08/12 03:25:44;;;;;;;37.87;17.60;;;15.30;99.90;;;;;;5114071;28;20441;-84
2021/08/12 03:28:11;;;;;;;46.53;24.43;;;15.30;99.90;;;;;;5113651;28;20549;-84
2021/08/12 03:30:37;;;;;;;50.83;21.80;;;15.30;99.90;;;;;;5114309;28;20450;-83
2021/08/12 03:33:05;;;;;;;40.67;21.83;;;15.30;99.90;;;;;;5113942;28;20537;-83
2021/08/12 03:35:33;;;;;;;43.70;23.83;;;15.30;99.90;;;;;;5113821;28;20449;-83
2021/08/12 03:37:59;;;;;;;49.87;20.10;;;15.30;99.90;;;;;;5113723;28;20473;-84
2021/08/12 03:40:26;;;;;;;41.20;20.73;;;15.30;99.90;;;;;;5114140;28;20480;-84
2021/08/12 03:42:52;;;;;;;46.97;20.50;;;15.20;99.90;;;;;;5113588;28;20482;-84
2021/08/12 03:45:19;;;;;;;41.77;19.33;;;15.20;99.90;;;;;;5113264;28;20445;-84
2021/08/12 03:47:45;;;;;;;41.70;21.80;;;15.20;99.90;;;;;;5113201;28;20488;-84
2021/08/12 03:50:12;;;;;;;40.27;19.27;;;15.20;99.90;;;;;;5114268;28;20533;-84
2021/08/12 03:52:40;;;;;;;43.77;18.30;;;15.20;99.90;;;;;;5113584;28;21099;-85
2021/08/12 03:55:07;;;;;;;41.67;20.10;;;15.20;99.90;;;;;;5113756;28;20964;-84
2021/08/12 03:57:34;;;;;;;37.77;20.43;;;15.20;99.90;;;;;;5112939;28;20522;-84
2021/08/12 04:00:05;;;;;;;41.50;19.23;;;15.20;99.90;;;;;;5113628;28;20480;-83
2021/08/12 04:02:31;;;;;;;39.97;20.53;;;15.30;99.90;;;;;;5113753;28;20445;-85
2021/08/12 04:04:58;;;;;;;40.30;19.70;;;15.20;99.90;;;;;;5113966;28;20532;-85
2021/08/12 04:07:24;;;;;;;42.73;24.17;;;15.20;99.90;;;;;;5113295;28;20900;-84
2021/08/12 04:09:52;;;;;;;42.47;22.43;;;15.20;99.90;;;;;;5113509;28;20560;-84
2021/08/12 04:12:18;;;;;;;44.47;23.87;;;15.20;99.90;;;;;;5113442;28;20449;-84
2021/08/12 04:14:45;;;;;;;42.47;24.17;;;15.30;99.90;;;;;;5115380;28;20549;-82
2021/08/12 04:17:11;;;;;;;42.40;21.70;;;15.30;99.90;;;;;;5113100;28;20445;-81
2021/08/12 04:19:38;;;;;;;40.33;19.63;;;15.30;99.90;;;;;;5112916;28;20536;-80
2021/08/12 04:22:05;;;;;;;48.40;23.53;;;15.30;99.90;;;;;;5113338;28;20553;-80
2021/08/12 04:24:32;;;;;;;46.80;27.37;;;15.30;99.90;;;;;;5112582;28;20524;-80
2021/08/12 04:27:00;;;;;;;42.90;22.37;;;15.30;99.90;;;;;;5113229;28;20471;-80
2021/08/12 04:29:27;;;;;;;46.20;25.50;;;15.40;99.90;;;;;;5113297;28;20509;-82
2021/08/12 04:31:53;;;;;;;47.10;25.77;;;15.40;99.90;;;;;;5113106;28;20540;-81
2021/08/12 04:34:20;;;;;;;42.37;18.50;;;15.40;99.90;;;;;;5110777;28;21012;-81
2021/08/12 04:36:47;;;;;;;42.53;24.33;;;15.40;99.90;;;;;;5112849;28;20536;-81
2021/08/12 04:39:13;;;;;;;42.47;22.97;;;15.50;99.90;;;;;;5112223;28;20473;-83
2021/08/12 04:41:40;;;;;;;44.20;21.87;;;15.50;99.90;;;;;;5112670;28;21036;-83
2021/08/12 04:44:08;;;;;;;46.70;23.77;;;15.50;99.90;;;;;;5111352;28;20537;-82
2021/08/12 04:46:34;;;;;;;41.67;23.23;;;15.60;99.90;;;;;;5111861;28;20477;-82
2021/08/12 04:49:02;;;;;;;43.33;23.53;;;15.60;99.90;;;;;;5111517;28;20512;-82
2021/08/12 04:51:28;;;;;;;41.67;24.67;;;15.70;99.90;;;;;;5111730;28;20473;-82
2021/08/12 04:53:55;;;;;;;46.63;25.60;;;15.70;99.90;;;;;;5112063;28;20477;-82
2021/08/12 04:56:22;;;;;;;48.60;21.93;;;15.80;99.90;;;;;;5111672;28;21015;-94
2021/08/12 04:58:48;;;;;;;42.43;20.40;;;15.90;99.90;;;;;;5112154;28;20549;-81
2021/08/12 05:01:19;;;;;;;46.40;24.97;;;16.00;99.90;;;;;;5110219;28;20564;-85
2021/08/12 05:03:45;;;;;;;48.50;23.30;;;16.10;99.90;;;;;;5110948;28;20449;-84
2021/08/12 05:06:15;;;;;;;50.07;27.93;;;16.10;99.90;;;;;;5111797;28;20473;-84
2021/08/12 05:08:43;;;;;;;46.13;27.40;;;16.20;99.90;;;;;;5100459;28;20485;-84
2021/08/12 05:11:10;;;;;;;45.20;25.47;;;16.30;99.90;;;;;;5115073;28;20456;-86
2021/08/12 05:13:36;;;;;;;46.07;25.77;;;16.30;99.90;;;;;;5115860;27;20477;-86
2021/08/12 05:16:03;;;;;;;45.70;25.87;;;16.40;99.90;;;;;;5114764;27;20883;-81
2021/08/12 05:18:31;;;;;;;48.27;25.57;;;16.50;99.90;;;;;;5115690;28;20445;-84
2021/08/12 05:20:58;;;;;;;42.60;25.23;;;16.50;99.90;;;;;;5115796;28;20473;-83
2021/08/12 05:23:24;;;;;;;47.90;27.00;;;16.60;99.90;;;;;;5115694;28;20532;-82
2021/08/12 05:25:51;;;;;;;41.60;21.90;;;16.70;99.90;;;;;;5115713;28;20520;-89
2021/08/12 05:28:17;;;;;;;46.43;25.93;;;16.80;99.90;;;;;;5113707;28;20461;-83
2021/08/12 05:30:44;;;;;;;44.27;23.63;;;16.90;99.90;;;;;;5115517;28;20989;-84
2021/08/12 05:33:10;;;;;;;43.07;22.13;;;17.00;99.90;;;;;;5115061;28;20473;-84
2021/08/12 05:35:38;;;;;;;45.77;25.27;;;17.10;99.90;;;;;;5115571;28;20477;-84
2021/08/12 05:38:05;;;;;;;44.80;28.47;;;17.20;99.90;;;;;;5115608;28;20450;-84
2021/08/12 05:40:32;;;;;;;54.83;25.57;;;17.30;99.90;;;;;;5115395;28;20484;-85
2021/08/12 05:42:59;;;;;;;47.40;27.57;;;17.50;99.90;;;;;;5115531;28;20469;-85
2021/08/12 05:45:25;;;;;;;41.27;22.83;;;17.60;99.90;;;;;;5115341;28;20449;-86
2021/08/12 05:47:52;;;;;;;50.40;25.53;;;17.70;99.90;;;;;;5113939;27;20446;-84
2021/08/12 05:50:19;;;;;;;51.53;32.17;;;17.90;99.90;;;;;;5115227;28;20535;-84
2021/08/12 05:52:46;;;;;;;54.63;28.07;;;18.00;99.90;;;;;;5115389;28;20477;-84
2021/08/12 05:55:13;;;;;;;43.10;26.87;;;18.20;99.90;;;;;;5115218;28;20477;-86
2021/08/12 05:57:39;;;;;;;46.30;33.10;;;18.50;99.90;;;;;;5115148;28;20577;-87
2021/08/12 06:00:08;;;;;;;53.67;32.13;;;18.80;99.90;;;;;;5115037;28;20552;-88
2021/08/12 06:02:34;;;;;;;52.50;34.37;;;19.10;99.90;;;;;;5114788;28;20500;-87
2021/08/12 06:05:01;;;;;;;52.93;36.47;;;19.60;99.90;;;;;;5114899;27;20442;-86
2021/08/12 06:07:27;;;;;;;55.53;37.40;;;20.00;99.90;;;;;;5114755;28;20526;-87
2021/08/12 06:09:55;;;;;;;52.60;43.90;;;20.50;99.90;;;;;;5114644;28;20503;-86
2021/08/12 06:12:22;;;;;;;52.40;46.37;;;20.80;99.90;;;;;;5114704;28;20793;-86
2021/08/12 06:14:48;;;;;;;61.83;55.33;;;21.20;99.90;;;;;;5116029;27;20469;-87
2021/08/12 06:17:15;;;;;;;63.03;56.23;;;21.60;99.90;;;;;;5113552;28;20442;-84
2021/08/12 06:19:41;;;;;;;77.53;69.60;;;21.90;99.90;;;;;;5114526;28;20979;-84
2021/08/12 06:22:08;;;;;;;35.33;31.60;;;22.10;99.90;;;;;;5113604;28;20437;-84
2021/08/12 06:24:35;;;;;;;35.00;31.33;;;22.30;99.90;;;;;;5114231;28;20430;-84
2021/08/12 06:27:03;;;;;;;48.70;44.07;;;22.50;99.90;;;;;;5114501;28;20441;-84
2021/08/12 06:29:30;;;;;;;64.77;59.37;;;22.70;99.90;;;;;;5114358;28;20552;-84
2021/08/12 06:31:56;;;;;;;72.37;66.37;;;22.90;99.90;;;;;;5113829;28;20458;-87
2021/08/12 06:34:23;;;;;;;136.83;126.90;;;23.20;99.90;;;;;;5114371;28;20871;-87
2021/08/12 06:36:49;;;;;;;185.87;173.47;;;23.50;99.90;;;;;;5114480;28;20528;-87
2021/08/12 06:39:16;;;;;;;166.67;155.37;;;23.60;99.90;;;;;;5114193;28;20481;-85
2021/08/12 06:41:43;;;;;;;225.30;211.07;;;23.90;99.90;;;;;;5114087;28;20955;-85
2021/08/12 06:44:11;;;;;;;347.13;326.50;;;24.00;99.90;;;;;;5114080;28;20450;-79
2021/08/12 06:46:37;;;;;;;586.07;548.87;;;24.20;99.90;;;;;;5114226;28;20450;-80
2021/08/12 06:49:04;;;;;;;537.30;504.97;;;24.40;99.90;;;;;;5099282;28;20568;-77
2021/08/12 06:51:31;;;;;;;675.40;629.60;;;24.50;99.90;;;;;;5107957;28;20454;-77
2021/08/12 06:53:57;;;;;;;669.63;624.80;;;24.70;99.90;;;;;;5104801;28;20525;-77
2021/08/12 06:56:24;;;;;;;762.97;709.67;;;24.80;99.90;;;;;;5113428;28;20473;-77
2021/08/12 06:58:50;;;;;;;681.20;637.30;;;24.90;99.90;;;;;;5113449;28;21106;-77
2021/08/12 07:01:18;;;;;;;773.40;718.40;;;25.00;99.90;;;;;;5113399;28;20472;-77
2021/08/12 07:03:45;;;;;;;997.43;905.30;;;25.20;99.90;;;;;;5113542;28;20442;-77
2021/08/12 07:06:11;;;;;;;1030.50;930.47;;;25.30;99.90;;;;;;5113300;28;20533;-77
2021/08/12 07:08:39;;;;;;;1074.80;960.27;;;25.40;99.90;;;;;;5113077;28;21051;-77
2021/08/12 07:11:05;;;;;;;1223.20;998.73;;;25.50;99.90;;;;;;5113037;28;20438;-77
2021/08/12 07:13:32;;;;;;;1598.23;999.90;;;25.60;99.90;;;;;;5113295;28;20485;-77
2021/08/12 07:16:00;;;;;;;1972.00;999.90;;;25.70;99.90;;;;;;5113394;27;20518;-77
2021/08/12 07:18:27;;;;;;;1999.90;976.80;;;25.80;99.90;;;;;;5113321;28;20442;-77
2021/08/12 07:20:54;;;;;;;1999.90;912.17;;;25.90;99.90;;;;;;5113218;28;20507;-77
2021/08/12 07:23:21;;;;;;;1999.90;915.90;;;25.90;99.90;;;;;;5112968;28;20882;-77
2021/08/12 07:25:47;;;;;;;1999.90;485.67;;;26.00;99.90;;;;;;5112710;28;20466;-77
2021/08/12 07:28:14;;;;;;;1846.20;258.57;;;26.00;99.90;;;;;;5113139;28;21002;-77
2021/08/12 07:30:40;;;;;;;1962.93;299.33;;;26.10;99.90;;;;;;5098774;28;20556;-78
2021/08/12 07:33:07;;;;;;;1999.90;999.90;;;26.20;99.90;;;;;;5112671;28;20537;-77
2021/08/12 07:35:35;;;;;;;1999.90;999.90;;;26.30;99.90;;;;;;5112869;28;20469;-78
2021/08/12 07:38:01;;;;;;;1999.90;999.90;;;26.30;99.90;;;;;;5113000;28;20529;-78
2021/08/12 07:40:28;;;;;;;1999.90;999.90;;;26.30;99.90;;;;;;5112758;28;20786;-78
2021/08/12 07:42:55;;;;;;;1999.90;999.90;;;26.30;99.90;;;;;;5112924;28;20491;-78
2021/08/12 07:45:21;;;;;;;1999.90;999.90;;;26.40;99.90;;;;;;5112810;28;20905;-78
2021/08/12 07:47:48;;;;;;;1999.90;999.90;;;26.40;99.90;;;;;;5113040;28;20789;-78
2021/08/12 07:50:14;;;;;;;1999.90;999.90;;;26.40;99.90;;;;;;5112590;28;20513;-78
2021/08/12 07:52:42;;;;;;;1999.90;999.90;;;26.40;99.90;;;;;;5100477;28;20808;-78
2021/08/12 07:55:10;;;;;;;1999.90;999.90;;;26.40;99.90;;;;;;5112659;28;20481;-78
2021/08/12 07:57:37;;;;;;;1999.90;999.90;;;26.40;99.90;;;;;;5112823;28;20518;-78
2021/08/12 08:00:04;;;;;;;1999.90;999.90;;;26.40;99.90;;;;;;5112830;28;20545;-80
2021/08/12 08:02:41;;;;;;;1999.90;999.90;;;26.40;99.90;;;;;;5112591;28;20446;-78
2021/08/12 08:05:09;;;;;;;1999.90;999.90;;;26.40;99.90;;;;;;5112580;28;20437;-80
2021/08/12 08:07:36;;;;;;;1999.90;999.90;;;26.40;99.90;;;;;;5112222;28;20512;-80
2021/08/12 08:10:05;;;;;;;1999.90;999.90;;;26.30;99.90;;;;;;5112506;28;20465;-80
2021/08/12 08:12:32;;;;;;;1999.90;999.90;;;26.30;99.90;;;;;;5112269;28;20984;-80
2021/08/12 08:14:59;;;;;;;1999.90;999.90;;;26.30;99.90;;;;;;5112748;28;20493;-79
2021/08/12 08:17:25;;;;;;;1999.90;999.90;;;26.20;99.90;;;;;;5111619;28;20528;-80
2021/08/12 08:19:52;;;;;;;1999.90;999.90;;;26.00;99.90;;;;;;5112304;28;20533;-79
2021/08/12 08:22:18;;;;;;;1999.90;999.90;;;25.90;99.90;;;;;;5112131;28;20441;-80
2021/08/12 08:24:45;;;;;;;1999.90;999.90;;;25.70;99.90;;;;;;5112486;28;20540;-80
2021/08/12 08:27:13;;;;;;;1999.90;999.90;;;25.50;99.90;;;;;;5111891;28;20524;-79
2021/08/12 08:29:39;;;;;;;1999.90;999.90;;;25.30;99.90;;;;;;5112530;28;20523;-79
2021/08/12 08:32:07;;;;;;;1999.90;999.90;;;25.10;99.90;;;;;;5112319;28;20544;-80
2021/08/12 08:34:34;;;;;;;1999.90;999.90;;;25.00;99.90;;;;;;5112663;28;20456;-79
2021/08/12 08:37:01;;;;;;;1999.90;999.90;;;24.90;99.90;;;;;;5113082;28;20441;-79
2021/08/12 08:39:27;;;;;;;1999.90;999.90;;;24.80;99.90;;;;;;5112784;28;20616;-79
2021/08/12 08:41:54;;;;;;;1999.90;999.90;;;24.80;99.90;;;;;;5112466;28;20529;-80
2021/08/12 08:44:22;;;;;;;1999.90;999.90;;;24.70;99.90;;;;;;5112584;28;20529;-79
2021/08/12 08:46:49;;;;;;;1999.90;999.90;;;24.70;99.90;;;;;;5116513;28;20480;-79
2021/08/12 08:49:20;;;;;;;1999.90;999.90;;;24.80;99.90;;;;;;5116023;28;20540;-79
2021/08/12 08:51:48;;;;;;;1999.90;999.90;;;24.80;99.90;;;;;;5116823;28;20496;-79
2021/08/12 08:54:16;;;;;;;1999.90;999.90;;;24.80;99.90;;;;;;5116672;28;20453;-79
2021/08/12 08:56:43;;;;;;;1999.90;999.90;;;24.70;99.90;;;;;;5103441;28;20536;-79
2021/08/12 08:59:10;;;;;;;1999.90;999.90;;;24.70;99.90;;;;;;5116138;28;20873;-79
2021/08/12 09:01:38;;;;;;;1999.90;999.90;;;24.70;99.90;;;;;;5115854;28;20448;-79
2021/08/12 09:04:05;;;;;;;1999.90;999.90;;;24.70;99.90;;;;;;5116073;28;20485;-79
2021/08/12 09:06:32;;;;;;;1999.90;999.90;;;24.70;99.90;;;;;;5116064;28;20476;-80
2021/08/12 09:08:59;;;;;;;1999.90;999.90;;;24.70;99.90;;;;;;5115765;28;20494;-79
2021/08/12 09:11:27;;;;;;;1999.90;999.90;;;24.70;99.90;;;;;;5115653;28;20531;-80
2021/08/12 09:13:54;;;;;;;1999.90;999.90;;;24.80;99.90;;;;;;5115170;28;20545;-79
2021/08/12 09:16:31;;;;;;;1999.90;999.90;;;24.80;99.90;;;;;;5115290;28;20847;-79
2021/08/12 09:19:15;;;;;;;1999.90;999.90;;;24.80;99.90;;;;;;5115883;28;20464;-80
2021/08/12 09:21:42;;;;;;;1999.90;999.90;;;24.90;99.90;;;;;;5115855;28;20532;-82
2021/08/12 09:24:09;;;;;;;1999.90;999.90;;;24.90;99.90;;;;;;5115463;28;20952;-79
2021/08/12 09:26:39;;;;;;;1999.90;999.90;;;25.00;99.90;;;;;;5115334;28;20504;-79
2021/08/12 09:29:06;;;;;;;1999.90;999.90;;;25.10;99.90;;;;;;5115512;28;20446;-79
2021/08/12 09:31:32;;;;;;;1999.90;999.90;;;25.10;99.90;;;;;;5115395;28;20473;-79
2021/08/12 09:34:00;;;;;;;1999.90;999.90;;;25.20;99.90;;;;;;5114991;28;20559;-79
2021/08/12 09:36:30;;;;;;;1999.90;999.90;;;25.30;99.90;;;;;;5115266;28;20472;-79
2021/08/12 09:39:18;;;;;;;1999.90;999.90;;;25.30;99.90;;;;;;5115106;28;20450;-79
2021/08/12 09:41:47;;;;;;;1999.90;999.90;;;25.40;99.90;;;;;;5115529;28;20454;-79
2021/08/12 09:44:31;;;;;;;1999.90;999.90;;;25.40;99.90;;;;;;5115393;28;20484;-79
2021/08/12 09:46:58;;;;;;;1540.97;978.57;;;25.50;99.90;;;;;;5103120;28;20495;-80
2021/08/12 09:49:25;;;;;;;1999.90;999.90;;;25.50;99.90;;;;;;5114741;28;20925;-80
2021/08/12 09:51:53;;;;;;;1999.90;999.90;;;25.50;99.90;;;;;;5115470;28;20473;-78
2021/08/12 09:54:29;;;;;;;1999.90;999.90;;;25.70;99.90;;;;;;5115049;28;20525;-79
2021/08/12 09:56:56;;;;;;;1868.07;985.40;;;25.70;99.90;;;;;;5114289;28;20445;-79
2021/08/12 09:59:22;;;;;;;1999.90;999.90;;;25.70;99.90;;;;;;5114572;28;21000;-79
2021/08/12 10:02:12;;;;;;;1400.63;698.20;;;25.80;99.90;;;;;;5114791;28;20477;-79
2021/08/12 10:04:39;;;;;;;1552.30;793.40;;;26.00;99.90;;;;;;5114637;28;20449;-79
2021/08/12 10:07:06;;;;;;;1604.40;999.90;;;26.10;99.90;;;;;;5114687;28;20556;-79
2021/08/12 10:09:40;;;;;;;1262.27;999.90;;;26.10;99.90;;;;;;5114490;28;20545;-79
2021/08/12 10:12:07;;;;;;;1271.43;999.90;;;26.10;99.90;;;;;;5114394;28;20796;-79
2021/08/12 10:14:34;;;;;;;1228.50;999.90;;;26.00;99.90;;;;;;5114400;28;20533;-79
2021/08/12 10:17:02;;;;;;;1159.63;999.90;;;25.90;99.90;;;;;;5113836;28;20473;-79
2021/08/12 10:19:30;;;;;;;1245.47;999.90;;;25.90;99.90;;;;;;5113310;28;20529;-79
2021/08/12 10:21:57;;;;;;;1369.23;999.90;;;25.90;99.90;;;;;;5114714;28;20537;-79
2021/08/12 10:24:29;;;;;;;1078.77;983.00;;;25.90;99.90;;;;;;5114607;28;20529;-79
2021/08/12 10:26:56;;;;;;;1059.17;971.40;;;25.90;99.90;;;;;;5114886;28;20480;-80
2021/08/12 10:29:25;;;;;;;1004.27;927.13;;;25.80;99.90;;;;;;5106651;28;20448;-79
2021/08/12 10:31:54;;;;;;;1031.93;947.67;;;25.80;99.90;;;;;;5114288;28;20469;-79
2021/08/12 10:34:25;;;;;;;1105.60;997.07;;;25.90;99.90;;;;;;5113951;28;20477;-81
2021/08/12 10:36:52;;;;;;;1110.40;999.47;;;25.90;99.90;;;;;;5114182;28;20530;-79
2021/08/12 10:39:20;;;;;;;1097.87;994.73;;;26.00;99.90;;;;;;5102514;28;20441;-79
2021/08/12 10:41:49;;;;;;;1088.33;993.07;;;25.90;99.90;;;;;;5113932;28;20450;-79
2021/08/12 10:44:19;;;;;;;1122.47;999.90;;;26.00;99.90;;;;;;5114013;28;20536;-79
2021/08/12 10:46:45;;;;;;;1202.90;999.90;;;26.10;99.90;;;;;;5114259;28;20533;-79
2021/08/12 10:49:28;;;;;;;798.13;744.27;;;26.20;99.90;;;;;;5113779;28;20536;-79
2021/08/12 10:52:04;;;;;;;737.80;689.23;;;26.20;99.90;;;;;;5113887;28;21038;-79
2021/08/12 10:54:31;;;;;;;706.83;661.33;;;26.20;99.90;;;;;;5112950;28;20524;-77
2021/08/12 10:57:20;;;;;;;655.60;614.57;;;26.20;99.90;;;;;;5113791;28;20446;-78
2021/08/12 10:59:49;;;;;;;686.83;643.37;;;26.20;99.90;;;;;;5106147;28;20495;-78
2021/08/12 11:02:42;;;;;;;647.23;607.37;;;26.20;99.90;;;;;;5113523;28;20449;-78
2021/08/12 11:05:09;;;;;;;737.33;690.00;;;26.20;99.90;;;;;;5112480;28;20441;-77
2021/08/12 11:07:50;;;;;;;786.90;734.83;;;26.20;99.90;;;;;;5112838;28;20470;-78
2021/08/12 11:10:17;;;;;;;669.83;629.23;;;26.20;99.90;;;;;;5113139;28;20563;-77
2021/08/12 11:13:05;;;;;;;598.43;562.13;;;26.20;99.90;;;;;;5112950;28;20529;-77
2021/08/12 11:15:57;;;;;;;495.73;467.00;;;26.10;99.90;;;;;;5103783;28;20528;-77
2021/08/12 11:18:43;;;;;;;555.23;522.27;;;26.00;98.90;;;;;;5113199;28;20444;-78
2021/08/12 11:21:41;;;;;;;599.57;563.27;;;25.90;99.30;;;;;;5112688;28;20437;-78
2021/08/12 11:24:09;;;;;;;680.10;637.47;;;25.90;99.90;;;;;;5112969;28;20494;-78
2021/08/12 11:27:06;;;;;;;846.30;786.60;;;25.70;99.90;;;;;;5113044;28;20450;-78
2021/08/12 11:29:35;;;;;;;800.97;746.33;;;25.70;99.90;;;;;;5102919;28;20452;-78
2021/08/12 11:32:07;;;;;;;920.80;852.50;;;25.70;99.90;;;;;;5111337;28;20568;-78
2021/08/12 11:34:39;;;;;;;853.93;793.87;;;25.60;99.90;;;;;;5113065;28;20529;-78
2021/08/12 11:37:09;;;;;;;696.83;652.47;;;25.60;99.90;;;;;;5113052;28;20536;-78
2021/08/12 11:39:47;;;;;;;669.00;626.80;;;25.60;99.90;;;;;;5112865;28;20473;-78
2021/08/12 11:42:24;;;;;;;614.47;577.07;;;25.50;99.90;;;;;;5112258;28;20544;-78
2021/08/12 11:44:56;;;;;;;638.03;597.73;;;25.50;99.90;;;;;;5108457;28;20524;-78
2021/08/12 11:47:23;;;;;;;699.50;655.57;;;25.50;99.90;;;;;;5109204;28;20985;-78
2021/08/12 11:49:51;;;;;;;790.57;736.60;;;25.50;99.90;;;;;;5112538;28;20988;-78
2021/08/12 11:52:29;;;;;;;744.93;695.43;;;25.50;99.90;;;;;;5111949;28;20563;-78
2021/08/12 11:54:56;;;;;;;728.97;680.80;;;25.60;99.90;;;;;;5112166;28;20445;-78
2021/08/12 11:57:42;;;;;;;722.57;675.10;;;25.60;99.90;;;;;;5112356;28;20532;-78
2021/08/12 12:00:12;;;;;;;791.87;738.43;;;25.70;99.90;;;;;;5112401;28;20484;-78
2021/08/12 12:02:49;;;;;;;776.57;724.97;;;25.60;99.90;;;;;;5112514;28;20491;-78
2021/08/12 12:05:16;;;;;;;747.10;698.77;;;25.60;99.90;;;;;;5112574;28;20477;-78
2021/08/12 12:07:44;;;;;;;675.23;632.83;;;25.60;99.90;;;;;;5112841;28;20889;-78
2021/08/12 12:10:11;;;;;;;720.10;673.93;;;25.60;99.90;;;;;;5112530;28;20477;-78
2021/08/12 12:12:38;;;;;;;691.90;647.70;;;25.50;99.90;;;;;;5112559;28;20533;-78
2021/08/12 12:15:05;;;;;;;652.03;611.77;;;25.50;99.90;;;;;;5112374;28;20452;-78
2021/08/12 12:17:33;;;;;;;653.70;613.00;;;25.50;99.90;;;;;;5112422;28;20529;-78
2021/08/12 12:20:12;;;;;;;642.67;602.43;;;25.50;99.90;;;;;;5113898;28;20456;-78
2021/08/12 12:22:40;;;;;;;774.70;722.90;;;25.50;99.90;;;;;;5116793;28;20475;-78
2021/08/12 12:25:09;;;;;;;764.83;714.17;;;25.50;99.90;;;;;;5116349;28;20502;-78